Time;durP1;ratioP1;P1;durP2;ratioP2;P2;SDS_P1;SDS_P2;PMS_P1;PMS_P2;Temp;Humidity;BMP_temperature;BMP_pressure;BME280_temperature;BME280_humidity;BME280_pressure;Samples;Min_cycle;Max_cycle;Signal;HPM_P1;HPM_P2
2021/08/24 00:00:45;;;;;;;;;9.25;8.25;;;;;20.21;52.33;101897.94;5078075;27;48152;-52
2021/08/24 00:03:10;;;;;;;;;11.75;9.75;;;;;20.20;51.90;101903.34;5081826;27;45504;-50
2021/08/24 00:05:37;;;;;;;;;11.00;10.00;;;;;20.18;51.65;101903.41;5078160;28;45470;-51
2021/08/24 00:08:05;;;;;;;;;9.00;9.00;;;;;20.16;51.89;101899.03;5090600;27;45398;-54
2021/08/24 00:10:40;;;;;;;;;9.75;9.75;;;;;20.15;52.42;101898.19;5079083;27;46397;-52
2021/08/24 00:13:06;;;;;;;;;7.50;7.50;;;;;20.13;52.54;101892.88;5072383;27;45433;-52
2021/08/24 00:15:33;;;;;;;;;12.25;11.00;;;;;20.12;52.05;101895.63;5098506;27;45165;-54
2021/08/24 00:17:59;;;;;;;;;10.25;8.50;;;;;20.10;52.47;101893.00;5082808;28;45243;-51
2021/08/24 00:20:30;;;;;;;;;14.25;12.25;;;;;20.08;52.61;101888.66;5082482;27;46237;-54
2021/08/24 00:22:56;;;;;;;;;11.00;11.00;;;;;20.07;52.10;101887.78;5082462;28;45212;-54
2021/08/24 00:25:22;;;;;;;;;9.75;9.00;;;;;20.05;52.28;101884.31;5081528;28;45307;-53
2021/08/24 00:27:47;;;;;;;;;13.75;12.25;;;;;20.04;52.25;101887.91;5082281;28;45226;-54
2021/08/24 00:30:13;;;;;;;;;11.75;11.75;;;;;20.03;52.31;101883.47;5081099;27;47882;-51
2021/08/24 00:32:38;;;;;;;;;15.50;12.25;;;;;20.00;52.40;101878.25;5082666;28;45242;-51
2021/08/24 00:35:04;;;;;;;;;13.25;11.00;;;;;20.00;52.21;101880.94;5082607;28;45215;-50
2021/08/24 00:37:30;;;;;;;;;12.00;11.25;;;;;20.01;52.41;101871.97;5082565;28;45483;-52
2021/08/24 00:39:55;;;;;;;;;15.50;11.25;;;;;19.99;53.01;101876.53;5080766;27;46819;-51
2021/08/24 00:42:21;;;;;;;;;15.25;11.75;;;;;19.97;52.50;101876.59;5080784;28;45330;-49
2021/08/24 00:44:48;;;;;;;;;12.00;11.00;;;;;19.97;52.59;101875.69;5082542;28;45329;-50
2021/08/24 00:47:18;;;;;;;;;14.50;12.75;;;;;19.95;52.95;101882.91;5082364;28;45612;-52
2021/08/24 00:49:44;;;;;;;;;13.75;12.00;;;;;19.94;52.56;101881.16;5081996;28;45237;-51
2021/08/24 00:52:24;;;;;;;;;13.25;11.75;;;;;19.94;52.66;101878.47;5082070;28;45472;-50
2021/08/24 00:54:50;;;;;;;;;15.75;15.25;;;;;19.93;53.12;101882.06;5082196;27;45376;-53
2021/08/24 00:57:20;;;;;;;;;16.00;14.75;;;;;19.92;53.13;101888.31;5080684;28;45347;-51
2021/08/24 00:59:46;;;;;;;;;21.75;16.75;;;;;19.90;53.14;101885.72;5081627;27;45453;-49
2021/08/24 01:02:16;;;;;;;;;16.50;14.00;;;;;19.89;52.82;101886.63;5082016;27;45342;-54
2021/08/24 01:04:43;;;;;;;;;16.25;16.00;;;;;19.88;52.79;101887.56;5081955;28;45224;-49
2021/08/24 01:07:18;;;;;;;;;14.50;14.50;;;;;19.87;53.21;101884.94;5080786;28;45560;-50
2021/08/24 01:10:21;;;;;;;;;17.25;15.25;;;;;19.87;53.20;101891.13;5080412;27;46420;-51
2021/08/24 01:13:14;;;;;;;;;17.00;14.00;;;;;19.87;53.08;101884.94;5081435;28;45212;-51
2021/08/24 01:16:07;;;;;;;;;14.00;12.75;;;;;19.85;53.46;101881.44;5081893;28;45363;-50
2021/08/24 01:19:03;;;;;;;;;18.75;17.75;;;;;19.85;53.04;101876.13;5080434;28;45327;-52
2021/08/24 01:22:06;;;;;;;;;17.75;15.00;;;;;19.83;53.39;101872.66;5080276;27;47196;-53
2021/08/24 01:24:40;;;;;;;;;17.75;14.25;;;;;19.80;53.70;101874.47;5081547;27;45518;-53
2021/08/24 01:27:13;;;;;;;;;17.50;15.25;;;;;19.79;53.58;101867.38;5080368;28;45436;-53
2021/08/24 01:30:29;;;;;;;;;15.50;14.50;;;;;19.77;53.34;101869.25;5080184;28;45536;-52
2021/08/24 01:33:31;;;;;;;;;11.50;11.50;;;;;19.73;53.28;101867.59;5063515;28;45522;-54
2021/08/24 01:36:12;;;;;;;;;15.25;14.00;;;;;19.72;53.71;101871.22;5074094;28;45161;-52
2021/08/24 01:39:04;;;;;;;;;19.00;17.00;;;;;19.71;53.70;101869.47;5081419;28;45427;-53
2021/08/24 01:41:58;;;;;;;;;17.00;13.00;;;;;19.64;53.88;101860.78;5079850;27;45489;-51
2021/08/24 01:44:24;;;;;;;;;18.75;16.50;;;;;19.63;53.28;101864.41;5079792;28;46060;-52
2021/08/24 01:47:07;;;;;;;;;16.25;16.00;;;;;19.63;53.92;101859.06;5080058;28;45885;-53
2021/08/24 01:49:38;;;;;;;;;17.25;14.00;;;;;19.62;53.50;101864.44;5081328;28;45436;-53
2021/08/24 01:52:08;;;;;;;;;16.00;14.25;;;;;19.58;54.06;101861.00;5081101;27;45324;-52
2021/08/24 01:54:43;;;;;;;;;19.00;16.00;;;;;19.58;53.73;101865.47;5080871;28;46410;-53
2021/08/24 01:57:15;;;;;;;;;15.75;15.00;;;;;19.56;53.77;101859.31;5080842;28;45224;-53
2021/08/24 01:59:51;;;;;;;;;14.00;12.75;;;;;19.53;53.88;101862.94;5080968;28;45299;-53
2021/08/24 02:02:22;;;;;;;;;12.75;12.75;;;;;19.51;53.75;101864.81;5081014;27;45250;-54
2021/08/24 02:04:57;;;;;;;;;21.50;17.50;;;;;19.49;53.68;101854.19;5067621;28;46364;-51
2021/08/24 02:07:25;;;;;;;;;20.00;16.50;;;;;19.49;54.05;101858.66;5080895;28;45430;-50
2021/08/24 02:09:57;;;;;;;;;15.50;15.50;;;;;19.45;54.15;101857.03;5081161;28;45575;-53
2021/08/24 02:12:26;;;;;;;;;19.00;15.00;;;;;19.47;53.62;101864.03;5079307;28;45331;-53
2021/08/24 02:14:52;;;;;;;;;17.25;16.50;;;;;19.45;53.82;101865.88;5080737;28;45251;-51
2021/08/24 02:17:22;;;;;;;;;20.00;17.00;;;;;19.44;54.25;101863.28;5080814;28;45215;-52
2021/08/24 02:19:53;;;;;;;;;17.25;15.75;;;;;19.40;54.21;101859.84;5080892;28;45358;-49
2021/08/24 02:22:28;;;;;;;;;17.25;16.75;;;;;19.38;53.90;101855.47;5080640;28;45533;-52
2021/08/24 02:25:01;;;;;;;;;19.50;18.50;;;;;19.38;53.76;101861.66;5080478;28;46190;-53
2021/08/24 02:27:31;;;;;;;;;18.50;18.50;;;;;19.34;54.03;101860.03;5080260;28;45246;-53
2021/08/24 02:29:57;;;;;;;;;15.75;15.25;;;;;19.33;54.41;101858.28;5080635;27;45338;-50
2021/08/24 02:32:32;;;;;;;;;18.25;18.25;;;;;19.30;54.05;101858.41;5080650;27;45310;-50
2021/08/24 02:35:11;;;;;;;;;17.00;14.25;;;;;19.28;54.08;101860.25;5080593;28;45492;-53
2021/08/24 02:37:46;;;;;;;;;20.50;17.75;;;;;19.27;54.23;101863.81;5080670;27;45517;-54
2021/08/24 02:40:24;;;;;;;;;23.75;17.25;;;;;19.26;54.44;101872.75;5080328;28;45217;-54
2021/08/24 02:43:08;;;;;;;;;15.50;14.75;;;;;19.22;54.25;101871.09;5080254;28;45338;-53
2021/08/24 02:45:40;;;;;;;;;17.25;15.50;;;;;19.20;54.21;101857.84;5080468;28;45345;-53
2021/08/24 02:48:09;;;;;;;;;21.75;20.75;;;;;19.21;54.15;101866.72;5080367;28;45245;-54
2021/08/24 02:50:36;;;;;;;;;17.25;16.00;;;;;19.20;54.54;101854.31;5080458;28;45353;-53
2021/08/24 02:53:01;;;;;;;;;16.75;14.75;;;;;19.16;54.30;101858.88;5080372;28;45255;-52
2021/08/24 02:55:27;;;;;;;;;19.00;17.00;;;;;19.16;54.22;101866.84;5080192;28;45519;-49
2021/08/24 02:57:52;;;;;;;;;20.25;20.25;;;;;19.15;54.54;101865.97;5079880;28;45339;-49
2021/08/24 03:00:18;;;;;;;;;20.25;18.75;;;;;19.14;54.55;101863.34;5080312;27;45445;-51
2021/08/24 03:02:43;;;;;;;;;23.50;19.75;;;;;19.11;54.75;101864.31;5080282;27;45312;-50
2021/08/24 03:05:09;;;;;;;;;20.50;18.50;;;;;19.10;54.47;101870.56;5080224;28;45386;-49
2021/08/24 03:07:37;;;;;;;;;19.25;18.75;;;;;19.10;54.60;101861.72;5078880;28;45216;-50
2021/08/24 03:10:09;;;;;;;;;19.25;17.50;;;;;19.08;54.50;101860.88;5080163;27;45165;-53
2021/08/24 03:12:55;;;;;;;;;26.00;23.75;;;;;19.07;54.61;101861.81;5079617;28;45677;-50
2021/08/24 03:15:27;;;;;;;;;25.00;21.25;;;;;19.06;54.74;101862.75;5078560;28;45972;-50
2021/08/24 03:18:08;;;;;;;;;27.00;21.75;;;;;19.04;54.37;101857.44;5079953;28;45244;-49
2021/08/24 03:20:38;;;;;;;;;24.00;23.25;;;;;19.03;54.82;101854.84;5079986;27;45370;-52
2021/08/24 03:23:05;;;;;;;;;23.50;22.50;;;;;19.03;54.79;101862.84;5079781;28;45317;-52
2021/08/24 03:25:31;;;;;;;;;25.25;23.25;;;;;19.02;54.91;101853.09;5079693;28;46164;-50
2021/08/24 03:27:57;;;;;;;;;23.75;22.00;;;;;19.01;55.05;101852.22;5079542;28;45243;-53
2021/08/24 03:30:23;;;;;;;;;29.50;25.00;;;;;19.00;54.47;101862.03;5079893;28;45453;-52
2021/08/24 03:32:49;;;;;;;;;22.00;20.25;;;;;18.98;55.02;101852.31;5079749;28;45228;-52
2021/08/24 03:35:16;;;;;;;;;26.25;25.50;;;;;18.98;54.75;101852.31;5079741;28;45412;-50
2021/08/24 03:37:43;;;;;;;;;27.75;25.50;;;;;18.95;54.72;101855.94;5079678;28;45346;-53
2021/08/24 03:40:11;;;;;;;;;28.50;26.50;;;;;18.96;54.77;101848.84;5079747;27;45366;-54
2021/08/24 03:42:37;;;;;;;;;33.75;31.25;;;;;18.96;54.80;101863.03;5078113;28;46498;-52
2021/08/24 03:45:05;;;;;;;;;33.50;30.50;;;;;18.95;55.05;101860.41;5079543;28;47139;-52
2021/08/24 03:47:30;;;;;;;;;28.75;27.50;;;;;18.94;55.07;101861.34;5079503;28;45333;-52
2021/08/24 03:49:55;;;;;;;;;30.75;30.00;;;;;18.89;54.75;101853.44;5079551;28;45314;-50
2021/08/24 03:52:21;;;;;;;;;29.75;29.00;;;;;18.93;54.93;101868.47;5083159;28;45387;-50
2021/08/24 03:54:46;;;;;;;;;32.25;31.00;;;;;18.91;55.08;101856.97;5082970;28;45295;-53
2021/08/24 03:57:12;;;;;;;;;24.00;24.00;;;;;18.91;55.17;101869.44;5082795;28;45256;-50
2021/08/24 03:59:37;;;;;;;;;30.00;25.50;;;;;18.91;54.92;101864.97;5083183;28;45312;-53
2021/08/24 04:02:04;;;;;;;;;32.75;29.25;;;;;18.91;54.93;101864.09;5082879;27;45429;-52
2021/08/24 04:04:30;;;;;;;;;33.50;31.25;;;;;18.90;54.84;101865.88;5082852;28;46348;-53
2021/08/24 04:06:56;;;;;;;;;30.00;27.50;;;;;18.90;55.25;101865.88;5082982;28;45231;-52
2021/08/24 04:09:21;;;;;;;;;30.50;29.00;;;;;18.88;55.23;101859.72;5081649;28;45268;-50
2021/08/24 04:11:46;;;;;;;;;30.50;26.25;;;;;18.90;55.24;101868.53;5082484;27;45349;-53
2021/08/24 04:14:12;;;;;;;;;33.50;28.75;;;;;18.90;55.21;101875.63;5081325;28;47045;-50
2021/08/24 04:16:37;;;;;;;;;38.75;31.50;;;;;18.89;55.14;101873.88;5081600;28;45418;-49
2021/08/24 04:19:02;;;;;;;;;35.00;31.50;;;;;18.89;55.26;101880.06;5082824;28;45152;-53
2021/08/24 04:21:29;;;;;;;;;33.00;31.50;;;;;18.89;55.06;101874.75;5082674;27;45536;-52
2021/08/24 04:23:54;;;;;;;;;35.25;31.50;;;;;18.90;55.62;101875.63;5082358;28;45418;-51
2021/08/24 04:26:20;;;;;;;;;32.00;30.75;;;;;18.89;55.56;101877.41;5082434;28;45381;-49
2021/08/24 04:28:45;;;;;;;;;35.50;31.25;;;;;18.86;55.62;101877.53;5082521;28;46006;-51
2021/08/24 04:31:16;;;;;;;;;41.25;33.75;;;;;18.90;55.58;101883.63;5082558;28;45308;-53
2021/08/24 04:33:42;;;;;;;;;37.00;32.25;;;;;18.89;55.42;101882.75;5082325;28;45274;-52
2021/08/24 04:36:08;;;;;;;;;37.50;30.25;;;;;18.89;55.40;101896.06;5082658;28;45235;-51
2021/08/24 04:38:34;;;;;;;;;36.00;32.50;;;;;18.89;55.26;101897.84;5081213;28;45260;-49
2021/08/24 04:41:00;;;;;;;;;32.50;30.25;;;;;18.86;55.38;101890.84;5082288;28;45460;-52
2021/08/24 04:43:26;;;;;;;;;36.25;31.50;;;;;18.87;55.49;101899.69;5082026;28;45282;-53
2021/08/24 04:45:51;;;;;;;;;35.50;31.75;;;;;18.88;55.50;101896.09;5082474;28;45388;-53
2021/08/24 04:48:17;;;;;;;;;34.50;32.00;;;;;18.87;55.34;101894.34;5082233;28;45806;-51
2021/08/24 04:50:44;;;;;;;;;33.50;31.00;;;;;18.86;55.76;101889.97;5082331;27;45395;-52
2021/08/24 04:53:10;;;;;;;;;36.50;31.50;;;;;18.87;55.17;101897.03;5082067;28;45266;-53
2021/08/24 04:55:36;;;;;;;;;35.00;31.75;;;;;18.84;55.44;101898.88;5082128;28;45247;-53
2021/08/24 04:58:02;;;;;;;;;36.75;31.50;;;;;18.86;55.21;101903.28;5081762;28;45426;-52
2021/08/24 05:00:32;;;;;;;;;37.50;32.75;;;;;18.86;55.22;101906.81;5082033;28;45231;-53
2021/08/24 05:02:58;;;;;;;;;38.25;33.25;;;;;18.86;55.08;101904.16;5080649;27;46192;-53
2021/08/24 05:05:24;;;;;;;;;38.50;33.50;;;;;18.85;55.53;101907.72;5082049;28;45346;-54
2021/08/24 05:07:49;;;;;;;;;36.75;31.50;;;;;18.88;55.10;101901.44;5082065;28;45292;-53
2021/08/24 05:10:15;;;;;;;;;32.25;30.00;;;;;18.86;55.40;101904.16;5082080;28;45231;-51
2021/08/24 05:12:40;;;;;;;;;28.25;28.25;;;;;18.88;55.46;101901.44;5081436;28;45308;-53
2021/08/24 05:15:06;;;;;;;;;38.25;33.25;;;;;18.86;55.18;101904.16;5081943;28;45149;-53
2021/08/24 05:17:32;;;;;;;;;39.25;34.25;;;;;18.87;55.07;101905.00;5081799;28;45234;-53
2021/08/24 05:19:57;;;;;;;;;33.75;31.50;;;;;18.85;55.57;101899.75;5081683;27;45554;-52
2021/08/24 05:22:23;;;;;;;;;34.00;33.00;;;;;18.85;55.34;101910.38;5081654;28;45216;-54
2021/08/24 05:24:48;;;;;;;;;30.00;26.25;;;;;18.84;55.48;101906.88;5081619;28;45321;-52
2021/08/24 05:27:14;;;;;;;;;33.25;30.25;;;;;18.84;55.20;101906.88;5081776;28;45219;-51
2021/08/24 05:29:39;;;;;;;;;33.50;31.25;;;;;18.84;55.39;101913.97;5081675;28;45527;-49
2021/08/24 05:32:05;;;;;;;;;37.50;32.75;;;;;18.82;55.47;101911.34;5081419;27;46043;-50
2021/08/24 05:34:31;;;;;;;;;33.50;31.00;;;;;18.81;55.20;101906.09;5081458;28;45355;-51
2021/08/24 05:36:56;;;;;;;;;36.50;32.50;;;;;18.81;55.47;101914.06;5081645;28;45755;-52
2021/08/24 05:39:21;;;;;;;;;29.00;28.00;;;;;18.80;55.16;101915.88;5081757;28;45272;-53
2021/08/24 05:41:47;;;;;;;;;38.00;32.50;;;;;18.79;55.46;101911.47;5079771;27;47233;-53
2021/08/24 05:44:12;;;;;;;;;35.75;30.75;;;;;18.78;55.58;101908.81;5081408;28;45429;-52
2021/08/24 05:46:38;;;;;;;;;39.00;31.00;;;;;18.78;55.51;101907.06;5081374;28;45627;-53
2021/08/24 05:49:04;;;;;;;;;40.00;32.00;;;;;18.77;55.62;101912.44;5081277;28;45435;-53
2021/08/24 05:51:29;;;;;;;;;35.50;31.75;;;;;18.76;55.43;101905.34;5081168;27;45251;-53
2021/08/24 05:53:55;;;;;;;;;33.75;31.50;;;;;18.76;55.30;101913.34;5081173;28;45235;-52
2021/08/24 05:56:23;;;;;;;;;35.00;33.00;;;;;18.74;55.63;101908.06;5079668;28;45445;-53
2021/08/24 05:58:51;;;;;;;;;39.50;34.75;;;;;18.77;55.52;101915.09;5081041;28;45227;-51
2021/08/24 06:01:25;;;;;;;;;34.75;31.00;;;;;18.76;55.42;101918.66;5079598;27;46944;-52
2021/08/24 06:03:50;;;;;;;;;32.50;30.50;;;;;18.74;55.73;101920.50;5081000;28;45626;-50
2021/08/24 06:06:28;;;;;;;;;33.00;30.00;;;;;18.76;55.26;101919.53;5081055;28;45283;-52
2021/08/24 06:08:54;;;;;;;;;38.75;33.25;;;;;18.77;55.41;101923.09;5081012;28;45466;-52
2021/08/24 06:11:32;;;;;;;;;39.25;33.00;;;;;18.77;55.91;101936.41;5080576;28;45393;-52
2021/08/24 06:13:59;;;;;;;;;37.00;32.25;;;;;18.77;55.34;101925.75;5080222;28;45240;-52
2021/08/24 06:16:26;;;;;;;;;30.00;30.00;;;;;18.75;55.53;101920.44;5080899;28;45290;-52
2021/08/24 06:18:51;;;;;;;;;38.00;32.75;;;;;18.77;55.65;101929.28;5080746;28;45527;-52
2021/08/24 06:21:18;;;;;;;;;34.00;29.75;;;;;18.77;55.56;101923.09;5080502;28;46053;-53
2021/08/24 06:23:45;;;;;;;;;40.75;32.25;;;;;18.79;55.35;101923.88;5079361;28;45362;-52
2021/08/24 06:26:10;;;;;;;;;39.25;34.50;;;;;18.81;55.66;101927.38;5080600;28;45524;-53
2021/08/24 06:28:36;;;;;;;;;36.25;32.75;;;;;18.80;55.85;101925.63;5080566;28;45398;-52
2021/08/24 06:31:02;;;;;;;;;32.00;28.75;;;;;18.83;55.40;101933.56;5080560;28;46081;-52
2021/08/24 06:33:31;;;;;;;;;35.75;31.75;;;;;18.83;55.61;101920.25;5080611;28;45286;-54
2021/08/24 06:35:57;;;;;;;;;32.00;29.50;;;;;18.86;55.88;101921.94;5080693;28;45326;-49
2021/08/24 06:38:22;;;;;;;;;29.75;27.25;;;;;18.87;55.85;101929.88;5080403;28;45534;-51
2021/08/24 06:40:48;;;;;;;;;33.75;32.50;;;;;18.89;55.76;101924.50;5080539;28;45347;-53
2021/08/24 06:43:15;;;;;;;;;36.00;31.50;;;;;18.90;56.12;101928.91;5080312;28;45484;-49
2021/08/24 06:45:41;;;;;;;;;29.50;28.00;;;;;18.91;55.90;101925.34;5080853;28;45291;-53
2021/08/24 06:48:06;;;;;;;;;36.50;32.25;;;;;18.94;56.20;101930.56;5080282;28;45349;-54
2021/08/24 06:50:32;;;;;;;;;29.50;29.25;;;;;18.94;55.80;101928.81;5080273;28;46242;-53
2021/08/24 06:52:57;;;;;;;;;30.50;28.25;;;;;18.98;55.78;101929.56;5080307;28;45184;-52
2021/08/24 06:55:25;;;;;;;;;32.50;31.00;;;;;18.98;55.59;101921.56;5080511;28;45456;-51
2021/08/24 06:57:51;;;;;;;;;36.50;31.50;;;;;18.98;55.65;101922.47;5079919;28;45540;-53
2021/08/24 07:00:20;;;;;;;;;35.00;31.75;;;;;19.05;55.85;101927.59;5080132;28;45363;-53
2021/08/24 07:02:45;;;;;;;;;31.50;29.75;;;;;19.07;55.91;101928.41;5080117;28;45308;-53
2021/08/24 07:05:13;;;;;;;;;40.50;31.25;;;;;19.09;55.85;101929.22;5080541;28;45263;-54
2021/08/24 07:07:38;;;;;;;;;33.75;29.75;;;;;19.11;55.86;101922.09;5080116;28;46110;-53
2021/08/24 07:10:05;;;;;;;;;35.75;30.75;;;;;19.14;55.83;101924.63;5080011;28;45331;-51
2021/08/24 07:12:31;;;;;;;;;34.25;27.00;;;;;19.16;55.88;101926.31;5079563;28;45385;-52
2021/08/24 07:14:57;;;;;;;;;27.00;27.00;;;;;19.17;56.08;101928.06;5080100;28;45366;-53
2021/08/24 07:17:23;;;;;;;;;39.00;34.50;;;;;19.20;55.92;101929.78;5078660;28;45526;-53
2021/08/24 07:19:49;;;;;;;;;34.50;31.25;;;;;19.24;55.80;101927.88;5079835;28;46969;-53
2021/08/24 07:22:15;;;;;;;;;34.50;30.50;;;;;19.25;55.50;101921.63;5079822;28;45183;-53
2021/08/24 07:24:41;;;;;;;;;38.75;31.25;;;;;19.24;55.73;101914.56;5078526;28;45254;-53
2021/08/24 07:27:06;;;;;;;;;33.00;29.00;;;;;19.32;56.04;101920.53;5082740;28;45664;-53
2021/08/24 07:29:31;;;;;;;;;28.00;25.50;;;;;19.34;55.62;101929.31;5083668;28;45992;-54
2021/08/24 07:31:57;;;;;;;;;31.75;29.75;;;;;19.37;55.71;101926.56;5083339;27;45310;-54
2021/08/24 07:34:22;;;;;;;;;32.50;27.75;;;;;19.39;55.47;101927.38;5082391;28;45283;-52
2021/08/24 07:36:47;;;;;;;;;31.25;28.75;;;;;19.42;55.90;101931.75;5083243;28;45507;-53
2021/08/24 07:39:13;;;;;;;;;26.75;23.75;;;;;19.46;56.04;101922.75;5083460;28;46011;-53
2021/08/24 07:41:38;;;;;;;;;31.00;26.25;;;;;19.49;55.94;101923.50;5083059;27;45248;-52
2021/08/24 07:44:04;;;;;;;;;29.00;26.50;;;;;19.56;55.60;101934.84;5082037;28;45239;-53
2021/08/24 07:46:29;;;;;;;;;29.00;25.50;;;;;19.59;56.11;101928.53;5083160;27;45387;-49
2021/08/24 07:48:55;;;;;;;;;28.25;26.50;;;;;19.60;55.56;101919.63;5083029;28;45821;-52
2021/08/24 07:51:21;;;;;;;;;27.25;25.50;;;;;19.65;55.76;101915.84;5083017;27;45264;-49
2021/08/24 07:53:48;;;;;;;;;26.50;24.75;;;;;19.71;55.43;101927.25;5098903;27;45532;-53
2021/08/24 07:56:13;;;;;;;;;28.25;24.25;;;;;19.72;56.04;101923.66;5082721;28;45260;-48
2021/08/24 07:58:39;;;;;;;;;24.75;23.25;;;;;19.75;55.47;101919.09;5082677;28;45264;-53
2021/08/24 08:01:04;;;;;;;;;25.50;21.50;;;;;19.82;55.61;101930.41;5082728;27;45322;-52
2021/08/24 08:03:30;;;;;;;;;20.50;19.25;;;;;19.83;55.92;101918.84;5083072;28;45211;-53
2021/08/24 08:05:55;;;;;;;;;27.75;25.50;;;;;19.88;55.55;101922.22;5082834;27;45148;-54
2021/08/24 08:08:21;;;;;;;;;25.50;23.25;;;;;19.94;55.81;101923.81;5082743;28;45319;-52
2021/08/24 08:10:46;;;;;;;;;22.75;21.00;;;;;19.99;55.48;101924.53;5081031;28;45264;-49
2021/08/24 08:13:12;;;;;;;;;29.50;24.00;;;;;20.04;55.89;101925.25;5081451;28;45274;-52
2021/08/24 08:15:38;;;;;;;;;21.00;20.00;;;;;20.09;55.49;101925.94;5082914;28;45229;-54
2021/08/24 08:18:06;;;;;;;;;29.50;26.00;;;;;20.14;55.73;101921.31;5082619;28;45466;-51
2021/08/24 08:20:32;;;;;;;;;23.75;21.50;;;;;20.18;55.34;101919.41;5082468;27;45354;-51
2021/08/24 08:22:59;;;;;;;;;21.50;18.00;;;;;20.24;55.40;101921.88;5082518;28;45396;-54
2021/08/24 08:25:24;;;;;;;;;21.25;19.75;;;;;20.28;55.98;101918.16;5080953;28;45524;-54
2021/08/24 08:27:50;;;;;;;;;19.00;18.50;;;;;20.35;55.47;101920.59;5082050;28;45349;-56
2021/08/24 08:30:15;;;;;;;;;18.75;18.00;;;;;20.38;55.72;101917.81;5082337;27;45256;-52
2021/08/24 08:32:43;;;;;;;;;19.50;16.75;;;;;20.43;55.46;101922.06;5082801;28;45200;-53
2021/08/24 08:35:11;;;;;;;;;18.25;17.50;;;;;20.51;54.70;101923.56;5082227;28;46006;-53
2021/08/24 08:37:36;;;;;;;;;15.50;12.00;;;;;20.56;55.29;101926.94;5081999;28;45321;-53
2021/08/24 08:40:04;;;;;;;;;14.00;13.00;;;;;20.61;54.79;101927.63;5081955;28;45334;-54
2021/08/24 08:42:46;;;;;;;;;16.50;16.00;;;;;20.68;55.25;101921.13;5082141;28;45368;-54
2021/08/24 08:45:17;;;;;;;;;16.25;14.25;;;;;20.72;54.99;101914.78;5082060;28;45304;-51
2021/08/24 08:47:54;;;;;;;;;18.75;13.00;;;;;20.82;55.19;101928.66;5082000;28;46891;-53
2021/08/24 08:50:33;;;;;;;;;16.00;16.00;;;;;20.89;54.71;101932.84;5082070;27;45327;-53
2021/08/24 08:53:17;;;;;;;;;15.25;15.25;;;;;20.95;55.11;101929.03;5082016;28;45337;-54
2021/08/24 08:55:50;;;;;;;;;11.25;11.25;;;;;21.01;54.62;101928.81;5081808;28;45330;-56
2021/08/24 08:58:27;;;;;;;;;13.50;13.50;;;;;21.08;54.21;101930.31;5080349;28;48664;-53
2021/08/24 09:00:57;;;;;;;;;12.25;12.25;;;;;21.14;54.71;101918.50;5080369;27;45731;-50
2021/08/24 09:03:38;;;;;;;;;12.75;12.25;;;;;21.23;54.03;101920.81;5082115;28;45321;-52
2021/08/24 09:06:03;;;;;;;;;15.25;12.50;;;;;21.30;54.22;101918.75;5081804;28;45378;-53
2021/08/24 09:08:41;;;;;;;;;13.00;13.00;;;;;21.38;54.15;101923.78;5080367;28;46147;-53
2021/08/24 09:11:07;;;;;;;;;14.25;12.00;;;;;21.46;54.00;101921.66;5081608;27;45493;-51
2021/08/24 09:13:43;;;;;;;;;11.25;10.75;;;;;21.53;53.77;101923.13;5081855;28;45219;-53
2021/08/24 09:16:17;;;;;;;;;11.50;11.00;;;;;21.58;53.87;101928.31;5081639;28;45231;-53
2021/08/24 09:18:57;;;;;;;;;10.25;10.25;;;;;21.66;53.69;101920.88;5081641;28;45228;-53
2021/08/24 09:21:26;;;;;;;;;11.75;10.50;;;;;21.73;53.36;101922.31;5081496;28;45326;-52
2021/08/24 09:23:53;;;;;;;;;11.00;10.00;;;;;21.82;53.61;101910.34;5081523;28;45264;-52
2021/08/24 09:26:39;;;;;;;;;8.25;8.25;;;;;21.90;53.09;101912.72;5081414;28;45414;-54
2021/08/24 09:29:06;;;;;;;;;11.75;11.00;;;;;21.94;53.08;101917.00;5081459;28;46186;-53
2021/08/24 09:31:33;;;;;;;;;8.75;8.75;;;;;22.03;53.14;101921.09;5081417;28;45403;-54
2021/08/24 09:33:58;;;;;;;;;10.75;9.00;;;;;22.14;53.15;101918.78;5081581;28;45302;-51
2021/08/24 09:36:24;;;;;;;;;11.00;11.00;;;;;22.21;52.47;101917.59;5081278;28;45375;-53
2021/08/24 09:38:51;;;;;;;;;11.00;11.00;;;;;22.31;52.54;101922.53;5081414;28;46289;-52
2021/08/24 09:41:27;;;;;;;;;9.75;9.25;;;;;22.38;52.82;101907.97;5081274;27;45319;-53
2021/08/24 09:43:58;;;;;;;;;10.00;8.00;;;;;22.48;52.62;101913.78;5081180;28;45252;-53
2021/08/24 09:46:33;;;;;;;;;7.25;7.25;;;;;22.57;52.56;101907.97;5081058;28;45290;-52
2021/08/24 09:49:33;;;;;;;;;6.50;6.00;;;;;22.70;52.04;101911.84;5080321;28;47140;-54
2021/08/24 09:52:00;;;;;;;;;8.75;7.00;;;;;22.80;52.15;101892.63;5081033;27;45240;-53
2021/08/24 09:54:37;;;;;;;;;7.00;6.50;;;;;22.89;51.74;101905.56;5079790;28;45454;-53
2021/08/24 09:57:16;;;;;;;;;7.00;7.00;;;;;22.99;51.40;101904.22;5079204;28;45891;-53
2021/08/24 09:59:47;;;;;;;;;7.00;7.00;;;;;23.11;51.38;101899.19;5080631;28;45296;-54
2021/08/24 10:02:39;;;;;;;;;10.25;8.75;;;;;23.24;51.52;101903.03;5080865;27;45383;-52
2021/08/24 10:05:14;;;;;;;;;7.25;7.25;;;;;23.36;51.36;101893.53;5070344;28;45271;-53
2021/08/24 10:07:43;;;;;;;;;7.00;6.25;;;;;23.49;51.24;101891.09;5080755;28;45499;-53
2021/08/24 10:10:31;;;;;;;;;8.75;8.00;;;;;23.65;51.19;101891.19;5080865;28;45327;-51
2021/08/24 10:12:59;;;;;;;;;9.25;6.75;;;;;23.77;50.83;101887.88;5073765;28;45476;-53
2021/08/24 10:15:36;;;;;;;;;7.25;6.50;;;;;23.90;50.85;101892.56;5080690;28;45244;-54
2021/08/24 10:18:13;;;;;;;;;5.50;5.50;;;;;24.04;50.40;101886.50;5080720;28;45318;-53
2021/08/24 10:21:16;;;;;;;;;7.00;6.00;;;;;24.17;50.27;101887.59;5080354;27;46259;-51
2021/08/24 10:23:52;;;;;;;;;6.50;6.50;;;;;24.27;50.01;101887.97;5074387;28;45485;-53
2021/08/24 10:26:24;;;;;;;;;7.50;6.50;;;;;24.36;49.68;101876.72;5080498;28;45442;-51
2021/08/24 10:29:02;;;;;;;;;6.00;5.00;;;;;24.58;49.47;101871.03;5080365;28;45365;-51
2021/08/24 10:31:50;;;;;;;;;7.75;6.75;;;;;24.75;49.55;101871.94;5079015;28;48009;-51
2021/08/24 10:34:40;;;;;;;;;7.00;6.25;;;;;24.87;48.61;101873.03;5080587;28;45259;-53
2021/08/24 10:37:23;;;;;;;;;8.00;8.00;;;;;25.05;48.55;101880.06;5080421;28;45417;-53
2021/08/24 10:39:55;;;;;;;;;5.50;5.50;;;;;25.20;48.15;101875.63;5080144;27;45466;-53
2021/08/24 10:42:22;;;;;;;;;4.50;4.50;;;;;25.42;48.67;101885.16;5079883;28;46329;-53
2021/08/24 10:45:00;;;;;;;;;7.00;5.00;;;;;25.63;48.55;101881.19;5080233;28;45262;-53
2021/08/24 10:47:29;;;;;;;;;6.00;5.50;;;;;25.88;48.52;101886.91;5080441;28;45320;-52
2021/08/24 10:49:58;;;;;;;;;5.25;4.25;;;;;26.09;47.85;101879.38;5080076;27;45255;-51
2021/08/24 10:52:54;;;;;;;;;5.00;5.00;;;;;26.37;47.36;101881.19;5078817;28;47148;-52
2021/08/24 10:55:30;;;;;;;;;3.75;3.75;;;;;26.66;48.00;101883.84;5080056;28;45423;-53
2021/08/24 10:58:01;;;;;;;;;5.00;4.50;;;;;26.98;47.90;101880.91;5080242;28;45426;-51
2021/08/24 11:00:40;;;;;;;;;5.50;5.50;;;;;27.32;47.51;101881.34;5079941;28;45472;-52
2021/08/24 11:03:30;;;;;;;;;5.50;5.00;;;;;27.66;47.18;101875.50;5067037;28;46136;-53
2021/08/24 11:06:03;;;;;;;;;4.25;4.25;;;;;28.07;47.22;101862.81;5080048;28;45413;-53
2021/08/24 11:08:51;;;;;;;;;5.50;5.00;;;;;28.44;46.74;101865.56;5080250;28;45354;-53
2021/08/24 11:11:41;;;;;;;;;5.00;5.00;;;;;28.93;46.99;101870.09;5078520;28;45325;-51
2021/08/24 11:14:27;;;;;;;;;4.00;4.00;;;;;29.34;46.41;101866.13;5079642;28;46748;-52
2021/08/24 11:17:13;;;;;;;;;8.50;6.00;;;;;29.73;46.36;101863.16;5079910;27;45314;-53
2021/08/24 11:19:39;;;;;;;;;3.50;3.50;;;;;30.10;45.50;101860.28;5078814;28;45418;-53
2021/08/24 11:22:18;;;;;;;;;6.00;6.00;;;;;30.44;46.08;101867.50;5079584;28;45600;-53
2021/08/24 11:24:43;;;;;;;;;6.00;4.25;;;;;30.80;45.93;101870.94;5079725;27;45252;-53
2021/08/24 11:27:21;;;;;;;;;4.75;4.25;;;;;31.16;45.23;101859.84;5079296;28;45160;-54